createdAt,value
2022-09-27T00:02:00.980Z,81.37
2022-09-27T00:04:31.185Z,82.06
2022-09-27T00:07:00.187Z,81.82
2022-09-27T00:09:28.964Z,81.68
2022-09-27T00:11:58.069Z,81.20
2022-09-27T00:14:26.843Z,81.70
2022-09-27T00:16:55.575Z,81.68
2022-09-27T00:19:25.797Z,81.58
2022-09-27T00:21:58.519Z,81.56
2022-09-27T00:24:27.477Z,81.26
2022-09-27T00:26:56.328Z,81.29
2022-09-27T00:29:25.228Z,81.38
2022-09-27T00:31:53.994Z,81.33
2022-09-27T00:34:27.240Z,81.28
2022-09-27T00:36:57.443Z,81.40
2022-09-27T00:39:26.723Z,81.00
2022-09-27T00:41:55.933Z,80.96
2022-09-27T00:45:14.842Z,81.11
2022-09-27T00:47:53.882Z,80.77
2022-09-27T00:50:36.700Z,80.93
2022-09-27T00:53:16.720Z,81.33
2022-09-27T00:55:53.361Z,82.03
2022-09-27T00:58:28.107Z,81.94
2022-09-27T01:01:02.923Z,81.74
2022-09-27T01:03:44.182Z,82.20
2022-09-27T01:06:14.834Z,82.04
2022-09-27T01:08:44.950Z,82.36
2022-09-27T01:11:36.098Z,82.12
2022-09-27T01:14:34.046Z,81.99
2022-09-27T01:17:24.149Z,81.81
2022-09-27T01:20:35.852Z,81.77
2022-09-27T01:23:54.998Z,82.47
2022-09-27T01:26:47.404Z,81.90
2022-09-27T01:29:33.523Z,81.93
2022-09-27T01:32:11.982Z,81.93
2022-09-27T01:34:52.703Z,81.81
2022-09-27T01:37:38.494Z,82.08
2022-09-27T01:40:18.350Z,82.11
2022-09-27T01:43:34.358Z,81.68
2022-09-27T01:46:10.109Z,81.68
2022-09-27T01:49:05.526Z,81.40
2022-09-27T01:51:43.197Z,81.80
2022-09-27T01:54:20.454Z,82.00
2022-09-27T01:57:18.395Z,81.61
2022-09-27T01:59:58.097Z,81.53
2022-09-27T02:02:57.150Z,80.88
2022-09-27T02:05:41.345Z,81.19
2022-09-27T02:08:40.201Z,81.13
2022-09-27T02:11:17.168Z,81.10
2022-09-27T02:13:59.397Z,80.49
2022-09-27T02:16:53.908Z,80.99
2022-09-27T02:19:42.199Z,81.08
2022-09-27T02:22:22.871Z,80.82
2022-09-27T02:25:00.095Z,80.29
2022-09-27T02:27:36.083Z,80.37
2022-09-27T02:30:14.223Z,81.19
2022-09-27T02:32:46.214Z,80.64
2022-09-27T02:35:21.044Z,80.60
2022-09-27T02:37:53.057Z,80.38
2022-09-27T02:40:22.409Z,80.20
2022-09-27T02:42:51.747Z,80.61
2022-09-27T02:45:21.944Z,80.24
2022-09-27T02:48:07.813Z,80.05
2022-09-27T02:51:11.188Z,79.95
2022-09-27T02:54:06.035Z,80.37
2022-09-27T02:57:08.178Z,80.69
2022-09-27T03:00:11.224Z,80.72
2022-09-27T03:03:01.436Z,80.65
2022-09-27T03:05:46.936Z,81.06
2022-09-27T03:08:16.250Z,81.43
2022-09-27T03:10:48.593Z,81.55
2022-09-27T03:13:18.586Z,82.29
2022-09-27T03:15:48.530Z,82.50
2022-09-27T03:18:20.866Z,83.49
2022-09-27T03:21:16.351Z,83.44
2022-09-27T03:23:45.571Z,84.07
2022-09-27T03:26:15.707Z,84.95
2022-09-27T03:28:45.141Z,84.91
2022-09-27T03:31:14.850Z,84.52
2022-09-27T03:33:54.043Z,84.95
2022-09-27T03:36:22.817Z,84.90
2022-09-27T03:38:52.853Z,85.69
2022-09-27T03:41:24.096Z,85.47
2022-09-27T03:43:56.738Z,85.88
2022-09-27T03:46:26.111Z,85.89
2022-09-27T03:48:55.152Z,85.86
2022-09-27T03:51:23.963Z,85.75
2022-09-27T03:53:52.908Z,85.88
2022-09-27T03:56:25.341Z,86.08
2022-09-27T03:58:56.723Z,86.22
2022-09-27T04:01:53.330Z,87.09
2022-09-27T04:04:43.196Z,86.52
2022-09-27T04:07:13.044Z,86.91
2022-09-27T04:09:44.860Z,86.89
2022-09-27T04:12:16.845Z,86.75
2022-09-27T04:14:46.671Z,86.92
2022-09-27T04:17:33.954Z,87.02
2022-09-27T04:20:23.058Z,86.96
2022-09-27T04:22:53.967Z,86.72
2022-09-27T04:25:23.573Z,87.25
2022-09-27T04:27:55.441Z,87.28
2022-09-27T04:30:25.052Z,87.52
2022-09-27T04:33:03.715Z,87.21
2022-09-27T04:36:09.699Z,87.94
2022-09-27T04:38:42.076Z,87.50
2022-09-27T04:41:11.218Z,87.81
2022-09-27T04:43:43.575Z,87.69
2022-09-27T04:46:16.509Z,88.04
2022-09-27T04:48:50.925Z,88.11
2022-09-27T04:51:20.423Z,88.34
2022-09-27T04:53:53.971Z,88.38
2022-09-27T04:56:24.771Z,88.28
2022-09-27T04:58:55.991Z,88.26
2022-09-27T05:01:25.162Z,88.15
2022-09-27T05:04:14.537Z,88.43
2022-09-27T05:06:56.276Z,88.58
2022-09-27T05:09:33.362Z,88.86
2022-09-27T05:12:03.417Z,88.64
2022-09-27T05:14:37.372Z,88.76
2022-09-27T05:17:29.430Z,88.47
2022-09-27T05:20:21.811Z,89.00
2022-09-27T05:22:57.411Z,89.01
2022-09-27T05:25:26.409Z,88.65
2022-09-27T05:27:56.867Z,88.82
2022-09-27T05:30:28.641Z,89.16
2022-09-27T05:33:07.945Z,89.19
2022-09-27T05:35:53.093Z,89.18
2022-09-27T05:38:25.488Z,88.96
2022-09-27T05:40:57.624Z,89.25
2022-09-27T05:43:28.481Z,89.19
2022-09-27T05:46:02.207Z,89.92
2022-09-27T05:48:31.336Z,89.51
2022-09-27T05:51:07.958Z,89.37
2022-09-27T05:53:40.084Z,89.47
2022-09-27T05:56:15.168Z,89.54
2022-09-27T05:59:10.854Z,90.17
2022-09-27T06:02:02.104Z,90.27
2022-09-27T06:04:50.797Z,90.44
2022-09-27T06:07:40.792Z,90.03
2022-09-27T06:10:20.966Z,89.94
2022-09-27T06:12:50.440Z,89.98
2022-09-27T06:15:43.193Z,90.15
2022-09-27T06:18:18.321Z,90.26
2022-09-27T06:20:49.726Z,90.29
2022-09-27T06:23:22.579Z,90.06
2022-09-27T06:25:53.869Z,90.34
2022-09-27T06:28:36.264Z,90.55
2022-09-27T06:31:09.591Z,90.50
2022-09-27T06:33:59.122Z,90.36
2022-09-27T06:36:28.338Z,89.87
2022-09-27T06:38:57.167Z,90.03
2022-09-27T06:41:33.511Z,89.92
2022-09-27T06:44:15.809Z,90.08
2022-09-27T06:47:02.977Z,90.12
2022-09-27T06:49:58.371Z,89.86
2022-09-27T06:52:27.846Z,90.05
2022-09-27T06:54:56.799Z,90.36
2022-09-27T06:57:39.755Z,90.14
2022-09-27T07:00:26.937Z,90.21
2022-09-27T07:03:23.156Z,90.52
2022-09-27T07:06:22.982Z,90.50
2022-09-27T07:09:01.125Z,90.57
2022-09-27T07:11:30.487Z,90.75
2022-09-27T07:13:59.512Z,90.68
2022-09-27T07:16:28.404Z,90.47
2022-09-27T07:18:57.917Z,90.60
2022-09-27T07:21:28.282Z,90.92
2022-09-27T07:23:57.051Z,90.63
2022-09-27T07:26:26.000Z,90.41
2022-09-27T07:28:54.814Z,90.13
2022-09-27T07:31:24.727Z,90.00
2022-09-27T07:33:54.430Z,90.39
2022-09-27T07:36:23.864Z,90.12
2022-09-27T07:38:54.491Z,89.95
2022-09-27T07:41:27.735Z,89.80
2022-09-27T07:43:57.317Z,89.75
2022-09-27T07:46:27.114Z,89.55
2022-09-27T07:49:20.730Z,89.22
2022-09-27T07:52:03.571Z,89.68
2022-09-27T07:56:00.828Z,89.12
2022-09-27T07:58:38.384Z,89.52
2022-09-27T08:01:18.884Z,89.28
2022-09-27T08:03:47.755Z,89.46
2022-09-27T08:06:18.077Z,88.85
2022-09-27T08:08:47.591Z,87.91
2022-09-27T08:11:19.208Z,87.68
2022-09-27T08:13:54.437Z,87.28
2022-09-27T08:16:27.982Z,87.17
2022-09-27T08:19:17.205Z,86.34
2022-09-27T08:22:10.205Z,85.69
2022-09-27T08:25:08.260Z,85.00
2022-09-27T08:28:05.922Z,85.62
2022-09-27T08:30:48.786Z,85.60
2022-09-27T08:33:18.037Z,85.56
2022-09-27T08:35:47.290Z,83.96
2022-09-27T08:38:16.115Z,83.16
2022-09-27T08:40:55.980Z,83.84
2022-09-27T08:43:38.036Z,84.10
2022-09-27T08:46:26.416Z,83.47
2022-09-27T08:49:08.883Z,80.29
2022-09-27T08:51:39.190Z,81.39
2022-09-27T08:54:19.302Z,81.11
2022-09-27T08:56:51.461Z,80.37
2022-09-27T08:59:25.059Z,80.21
2022-09-27T09:02:00.558Z,79.88
2022-09-27T09:04:43.069Z,79.57
2022-09-27T09:07:38.894Z,80.80
2022-09-27T09:10:52.319Z,80.65
2022-09-27T09:13:41.797Z,81.42
2022-09-27T09:16:31.511Z,83.11
2022-09-27T09:19:25.384Z,81.87
2022-09-27T09:22:35.725Z,80.85
2022-09-27T09:25:23.999Z,77.08
2022-09-27T09:28:17.328Z,77.35
2022-09-27T09:31:07.007Z,79.16
2022-09-27T09:33:42.807Z,79.19
2022-09-27T09:36:28.689Z,79.50
2022-09-27T09:39:05.664Z,80.18
2022-09-27T09:41:41.776Z,80.18
2022-09-27T09:44:23.277Z,78.89
2022-09-27T09:46:58.710Z,79.03
2022-09-27T09:49:35.749Z,76.03
2022-09-27T09:52:13.389Z,73.75
2022-09-27T09:54:51.957Z,73.21
2022-09-27T09:57:26.649Z,73.86
2022-09-27T10:00:02.605Z,75.66
2022-09-27T10:02:39.526Z,77.53
2022-09-27T10:05:25.364Z,74.08
2022-09-27T10:08:06.684Z,74.20
2022-09-27T10:10:36.749Z,74.35
2022-09-27T10:13:20.556Z,69.97
2022-09-27T10:16:03.982Z,70.95
2022-09-27T10:18:37.695Z,68.25
2022-09-27T10:21:14.921Z,69.54
2022-09-27T10:24:16.544Z,70.25
2022-09-27T10:27:18.425Z,68.15
2022-09-27T10:29:47.362Z,67.01
2022-09-27T10:32:27.450Z,66.35
2022-09-27T10:35:39.145Z,64.92
2022-09-27T10:38:30.900Z,64.73
2022-09-27T10:41:25.941Z,66.79
2022-09-27T10:44:26.681Z,68.15
2022-09-27T10:47:26.505Z,68.52
2022-09-27T10:50:08.145Z,68.89
2022-09-27T10:53:07.043Z,71.13
2022-09-27T10:55:39.929Z,71.81
2022-09-27T10:58:22.019Z,72.05
2022-09-27T11:01:01.217Z,73.06
2022-09-27T11:03:35.730Z,74.46
2022-09-27T11:06:28.232Z,73.01
2022-09-27T11:09:12.406Z,74.40
2022-09-27T11:11:41.411Z,74.30
2022-09-27T11:14:22.754Z,73.12
2022-09-27T11:17:26.967Z,73.59
2022-09-27T11:20:32.952Z,72.38
2022-09-27T11:23:40.722Z,72.36
2022-09-27T11:26:51.183Z,72.68
2022-09-27T11:29:35.737Z,73.36
2022-09-27T11:32:47.891Z,73.48
2022-09-27T11:36:14.664Z,74.05
2022-09-27T11:39:05.941Z,76.81
2022-09-27T11:42:07.565Z,75.87
2022-09-27T11:45:34.405Z,77.34
2022-09-27T11:48:24.102Z,74.19
2022-09-27T11:51:14.934Z,75.49
2022-09-27T11:54:25.090Z,74.04
2022-09-27T11:57:09.020Z,72.18
2022-09-27T12:00:09.900Z,73.65
2022-09-27T12:03:49.674Z,72.25
2022-09-27T12:06:37.155Z,69.26
2022-09-27T12:09:13.065Z,69.11
2022-09-27T12:11:49.166Z,69.47
2022-09-27T12:14:27.088Z,69.29
2022-09-27T12:16:59.982Z,72.66
2022-09-27T12:19:38.097Z,76.46
2022-09-27T12:22:34.725Z,77.52
2022-09-27T12:25:20.705Z,78.25
2022-09-27T12:28:12.365Z,76.02
2022-09-27T12:31:01.326Z,78.25
2022-09-27T12:33:51.187Z,77.11
2022-09-27T12:36:27.430Z,78.78
2022-09-27T12:39:06.429Z,77.55
2022-09-27T12:41:45.333Z,77.00
2022-09-27T12:44:26.172Z,76.16
2022-09-27T12:47:13.304Z,75.50
2022-09-27T12:50:01.660Z,74.03
2022-09-27T12:52:40.485Z,73.87
2022-09-27T12:55:53.458Z,74.14
2022-09-27T12:59:17.589Z,72.91
2022-09-27T13:02:29.160Z,73.48
2022-09-27T13:05:30.105Z,73.40
2022-09-27T13:08:32.911Z,73.78
2022-09-27T13:11:19.911Z,73.11
2022-09-27T13:13:49.520Z,73.27
2022-09-27T13:16:18.399Z,72.55
2022-09-27T13:19:01.523Z,72.97
2022-09-27T13:22:00.020Z,70.19
2022-09-27T13:25:02.790Z,68.36
2022-09-27T13:27:58.007Z,68.88
2022-09-27T13:30:49.715Z,68.64
2022-09-27T13:33:47.299Z,69.00
2022-09-27T13:36:31.950Z,66.73
2022-09-27T13:39:22.512Z,67.45
2022-09-27T13:42:39.660Z,67.69
2022-09-27T13:45:24.217Z,69.05
2022-09-27T13:47:57.036Z,67.90
2022-09-27T13:50:53.446Z,68.14
2022-09-27T13:53:33.440Z,67.32
2022-09-27T13:56:03.847Z,66.81
2022-09-27T13:58:53.970Z,68.97
2022-09-27T14:01:46.750Z,69.86
2022-09-27T14:04:24.395Z,69.51
2022-09-27T14:06:58.508Z,70.36
2022-09-27T14:09:33.294Z,70.65
2022-09-27T14:12:28.902Z,67.77
2022-09-27T14:15:02.830Z,68.68
2022-09-27T14:17:33.990Z,70.44
2022-09-27T14:20:07.333Z,72.50
2022-09-27T14:22:39.992Z,73.84
2022-09-27T14:25:20.507Z,74.45
2022-09-27T14:27:53.605Z,74.20
2022-09-27T14:30:36.915Z,73.97
2022-09-27T14:33:32.391Z,74.98
2022-09-27T14:36:48.839Z,74.96
2022-09-27T14:39:24.117Z,74.50
2022-09-27T14:41:55.871Z,74.89
2022-09-27T14:44:28.062Z,75.12
2022-09-27T14:51:30.488Z,76.05
2022-09-27T14:54:04.462Z,75.80
2022-09-27T14:56:38.658Z,75.93
2022-09-27T14:59:16.534Z,76.33
2022-09-27T15:01:51.692Z,76.40
2022-09-27T15:04:23.174Z,76.95
2022-09-27T15:06:54.605Z,76.24
2022-09-27T15:09:24.855Z,76.08
2022-09-27T15:11:59.082Z,76.03
2022-09-27T15:14:33.193Z,76.68
2022-09-27T15:17:06.099Z,76.53
2022-09-27T15:19:35.665Z,76.99
2022-09-27T15:22:35.659Z,76.14
2022-09-27T15:25:19.907Z,76.29
2022-09-27T15:27:52.460Z,76.34
2022-09-27T15:30:29.847Z,78.39
2022-09-27T15:32:59.441Z,78.30
2022-09-27T15:35:33.552Z,77.89
2022-09-27T15:38:31.083Z,78.45
2022-09-27T15:41:05.527Z,78.60
2022-09-27T15:43:39.465Z,78.99
2022-09-27T15:46:46.750Z,78.51
2022-09-27T15:49:31.685Z,77.50
2022-09-27T15:52:02.576Z,76.82
2022-09-27T15:54:35.894Z,76.88
2022-09-27T15:57:07.286Z,76.84
2022-09-27T15:59:37.744Z,76.86
2022-09-27T16:02:17.587Z,77.86
2022-09-27T16:04:46.312Z,78.01
2022-09-27T16:07:16.493Z,77.58
2022-09-27T16:09:46.959Z,77.27
2022-09-27T16:12:15.598Z,76.89
2022-09-27T16:14:44.281Z,76.81
2022-09-27T16:17:13.275Z,75.50
2022-09-27T16:19:42.161Z,74.70
2022-09-27T16:22:14.262Z,75.11
2022-09-27T16:24:46.251Z,75.60
2022-09-27T16:27:40.378Z,76.42
2022-09-27T16:30:10.738Z,76.72
2022-09-27T16:32:43.530Z,77.09
2022-09-27T16:35:14.400Z,77.55
2022-09-27T16:37:43.664Z,78.14
2022-09-27T16:40:18.287Z,77.92
2022-09-27T16:42:50.244Z,78.02
2022-09-27T16:45:19.970Z,77.96
2022-09-27T16:47:49.500Z,77.81
2022-09-27T16:50:36.101Z,77.86
2022-09-27T16:53:05.415Z,78.00
2022-09-27T16:55:37.620Z,77.80
2022-09-27T16:58:08.765Z,77.96
2022-09-27T17:00:37.809Z,77.86
2022-09-27T17:03:09.119Z,78.13
2022-09-27T17:05:38.251Z,77.88
2022-09-27T17:08:06.911Z,77.70
2022-09-27T17:10:38.779Z,77.78
2022-09-27T17:13:08.014Z,77.55
2022-09-27T17:15:39.193Z,78.04
2022-09-27T17:18:08.491Z,77.61
2022-09-27T17:20:38.103Z,78.02
2022-09-27T17:23:06.893Z,77.53
2022-09-27T17:25:39.967Z,77.95
2022-09-27T17:28:08.672Z,78.72
2022-09-27T17:30:40.175Z,78.13
2022-09-27T17:33:09.148Z,78.60
2022-09-27T17:35:38.722Z,78.36
2022-09-27T17:38:07.498Z,78.30
2022-09-27T17:40:37.676Z,78.54
2022-09-27T17:43:06.885Z,78.78
2022-09-27T17:45:36.134Z,78.68
2022-09-27T17:48:22.258Z,78.83
2022-09-27T17:50:52.325Z,78.85
2022-09-27T17:53:21.073Z,78.89
2022-09-27T17:55:51.180Z,79.09
2022-09-27T17:58:20.877Z,79.66
2022-09-27T18:01:00.818Z,79.65
2022-09-27T18:03:32.129Z,79.96
2022-09-27T18:06:06.699Z,80.23
2022-09-27T18:08:35.621Z,80.13
2022-09-27T18:11:30.774Z,80.62
2022-09-27T18:14:04.010Z,80.29
2022-09-27T18:17:00.102Z,80.10
2022-09-27T18:19:36.040Z,81.09
2022-09-27T18:22:07.549Z,81.08
2022-09-27T18:24:37.772Z,81.24
2022-09-27T18:27:08.713Z,81.15
2022-09-27T18:29:48.787Z,81.09
2022-09-27T18:32:18.391Z,80.52
2022-09-27T18:34:47.773Z,80.14
2022-09-27T18:37:20.079Z,79.87
2022-09-27T18:39:49.316Z,80.33
2022-09-27T18:42:20.490Z,80.35
2022-09-27T18:44:49.490Z,80.51
2022-09-27T18:47:19.074Z,80.12
2022-09-27T18:49:49.196Z,80.27
2022-09-27T18:52:21.127Z,79.82
2022-09-27T18:55:25.239Z,79.77
2022-09-27T18:57:55.987Z,79.55
2022-09-27T19:00:26.086Z,79.60
2022-09-27T19:02:55.135Z,79.63
2022-09-27T19:05:26.977Z,79.68
2022-09-27T19:07:55.707Z,79.69
2022-09-27T19:10:24.515Z,79.86
2022-09-27T19:12:57.012Z,79.44
2022-09-27T19:15:25.820Z,79.19
2022-09-27T19:17:54.845Z,79.61
2022-09-27T19:20:26.187Z,79.47
2022-09-27T19:22:57.576Z,79.59
2022-09-27T19:25:26.494Z,79.03
2022-09-27T19:27:56.794Z,79.06
2022-09-27T19:30:25.531Z,78.94
2022-09-27T19:32:54.100Z,78.27
2022-09-27T19:35:22.801Z,78.13
2022-09-27T19:37:51.502Z,78.06
2022-09-27T19:40:20.172Z,78.13
2022-09-27T19:42:52.926Z,79.17
2022-09-27T19:45:23.164Z,79.19
2022-09-27T19:47:52.048Z,78.56
2022-09-27T19:50:20.804Z,78.24
2022-09-27T19:52:49.635Z,78.50
2022-09-27T19:55:18.446Z,78.54
2022-09-27T19:57:47.117Z,78.66
2022-09-27T20:00:15.970Z,78.68
2022-09-27T20:02:46.050Z,78.88
2022-09-27T20:05:14.864Z,78.51
2022-09-27T20:07:46.364Z,78.40
2022-09-27T20:10:15.811Z,79.61
2022-09-27T20:12:45.877Z,78.88
2022-09-27T20:15:17.787Z,79.01
2022-09-27T20:17:47.844Z,78.86
2022-09-27T20:20:18.208Z,78.57
2022-09-27T20:22:46.806Z,78.58
2022-09-27T20:25:15.728Z,78.18
2022-09-27T20:27:44.330Z,78.15
2022-09-27T20:30:15.405Z,78.39
2022-09-27T20:33:04.426Z,77.91
2022-09-27T20:35:34.629Z,78.08
2022-09-27T20:38:03.190Z,77.85
2022-09-27T20:40:32.012Z,79.07
2022-09-27T20:43:00.684Z,78.79
2022-09-27T20:45:29.262Z,79.05
2022-09-27T20:47:57.861Z,78.85
2022-09-27T20:50:27.558Z,78.16
2022-09-27T20:52:57.628Z,78.72
2022-09-27T20:55:26.369Z,78.67
2022-09-27T20:57:57.816Z,79.65
2022-09-27T21:00:26.798Z,79.17
2022-09-27T21:02:55.555Z,78.74
2022-09-27T21:05:24.249Z,78.52
2022-09-27T21:07:56.741Z,79.05
2022-09-27T21:10:25.342Z,78.78
2022-09-27T21:12:53.956Z,78.53
2022-09-27T21:15:22.725Z,78.15
2022-09-27T21:17:52.777Z,78.71
2022-09-27T21:20:21.367Z,79.01
2022-09-27T21:22:49.994Z,78.51
2022-09-27T21:25:20.234Z,79.66
2022-09-27T21:27:54.867Z,79.94
2022-09-27T21:30:24.223Z,79.44
2022-09-27T21:32:56.078Z,79.57
2022-09-27T21:35:24.921Z,79.07
2022-09-27T21:37:56.931Z,79.20
2022-09-27T21:40:27.912Z,80.25
2022-09-27T21:42:57.873Z,79.85
2022-09-27T21:45:26.654Z,79.88
2022-09-27T21:47:55.212Z,80.06
2022-09-27T21:50:23.827Z,79.36
2022-09-27T21:52:57.952Z,79.46
2022-09-27T21:55:28.954Z,79.04
2022-09-27T21:57:57.786Z,80.33
2022-09-27T22:00:26.499Z,78.83
2022-09-27T22:02:58.619Z,78.93
2022-09-27T22:05:27.936Z,78.75
2022-09-27T22:07:56.617Z,79.12
2022-09-27T22:10:25.387Z,79.81
2022-09-27T22:12:55.369Z,79.27
2022-09-27T22:15:23.936Z,79.92
2022-09-27T22:17:53.074Z,79.57
2022-09-27T22:20:21.711Z,79.14
2022-09-27T22:22:50.256Z,80.28
2022-09-27T22:25:18.820Z,79.69
2022-09-27T22:27:47.372Z,80.45
2022-09-27T22:30:18.622Z,79.81
2022-09-27T22:32:48.095Z,79.67
2022-09-27T22:35:16.863Z,80.15
2022-09-27T22:37:46.980Z,79.76
2022-09-27T22:40:16.083Z,79.66
2022-09-27T22:42:44.855Z,80.90
2022-09-27T22:45:13.496Z,79.76
2022-09-27T22:47:43.445Z,80.72
2022-09-27T22:50:12.076Z,80.44
2022-09-27T22:52:40.719Z,80.92
2022-09-27T22:55:10.492Z,80.26
2022-09-27T22:57:39.144Z,80.10
2022-09-27T23:00:08.916Z,80.30
2022-09-27T23:02:37.665Z,80.20
2022-09-27T23:05:09.278Z,79.90
2022-09-27T23:07:37.902Z,80.50
2022-09-27T23:10:07.448Z,80.50
2022-09-27T23:12:36.045Z,80.60
2022-09-27T23:15:05.323Z,80.24
2022-09-27T23:17:34.226Z,81.08
2022-09-27T23:20:03.476Z,81.56
2022-09-27T23:22:35.898Z,81.00
2022-09-27T23:25:04.825Z,81.03
2022-09-27T23:27:50.093Z,81.56
2022-09-27T23:30:21.776Z,81.97
2022-09-27T23:32:55.618Z,81.58
2022-09-27T23:35:26.740Z,80.78
2022-09-27T23:37:57.870Z,81.08
2022-09-27T23:40:26.623Z,81.84
2022-09-27T23:42:55.276Z,81.46
2022-09-27T23:45:23.867Z,82.14
2022-09-27T23:47:52.938Z,82.51
2022-09-27T23:50:22.062Z,81.69
2022-09-27T23:52:50.653Z,81.50
2022-09-27T23:55:20.614Z,81.04
2022-09-27T23:57:49.278Z,82.25
